Fairfield, Mississippi
Current Conditions -  °F | °C
As of 3:53 PM on Thursday 18 Dec 2014 (Local Time) from KTUP Reporting Station
Overcast Overcast  
Wind Chill: 47°   Ceiling: 3400
Heat Index: 47°   Visibility: 10mi
Dew Point: 35°   Wind: 3mph
Humidity: 63%   Direction: 40°NE
Pressure: 30.18"   Gusts: NA
Location:  34.4333°N, 88.8629°W
Report Text: KTUP 182153Z 04003KT 10SM OVC034 08/02 A3018 RMK AO2 SLP219 T00830017
Loading
Personal Weather Stations






























Interactive Weather Map New forecast layout! Learn more

10-Day Weather Forecast

Advertisements
Track Severe Weather on mobile